Leonard, Michigan
Current Conditions -  °F | °C
As of 3:17 PM on Monday 24 Nov 2014 (Local Time) from KD95 Reporting Station
Overcast Overcast  
Wind Chill: 32°   Ceiling: 1700
Heat Index: 43°   Visibility: 10mi
Dew Point: 37°   Wind: 32mph
Humidity: 81%   Direction: 210°SSW
Pressure: 29.23"   Gusts: 41mph
Location:  42.87°N, 83.14°W
Report Text: KD95 242017Z AUTO 21028G36KT 10SM OVC017 06/03 A2923 RMK AO2
Loading
Personal Weather Stations






























Interactive Weather Map New forecast layout! Learn more

10-Day Weather Forecast

Advertisements
Track Severe Weather on mobile